This is the latest recevied weather packets stored in our database for station/object KN4CCE-13. If no packets are shown the sender has not sent any weather packets the latest 10 day(s).
| Time | Temp. | Humidity | Pressure | Rain* | Wind** | Luminosity | Snow |
|---|---|---|---|---|---|---|---|
| 1777847421 | 18.33° C | 32% | 1016 hPa | 0 mm | - | 19 W/m² | - |
| 1777846517 | 18.33° C | 32% | 1016.1 hPa | 0 mm | - | 21 W/m² | - |
| 1777845625 | 18.33° C | 34% | 1016 hPa | 0 mm | - | 23 W/m² | - |
| 1777838430 | 17.78° C | 35% | 1017 hPa | 0 mm | - | 788 W/m² | - |
| 1777833015 | 17.22° C | 36% | 1018 hPa | 0 mm | - | 991 W/m² | - |
| 1777831221 | 17.22° C | 38% | 1018.2 hPa | 0 mm | - | 1028 W/m² | - |
| 1777830319 | 17.22° C | 42% | 1018.3 hPa | 0 mm | - | 1035 W/m² | - |
| 1777820424 | 14.44° C | 46% | 1019.7 hPa | 0 mm | - | 884 W/m² | - |
| 1777811415 | 8.33° C | 80% | 1019.3 hPa | 0 mm | - | 313 W/m² | - |
| 1777810515 | 7.22° C | 87% | 1019.2 hPa | 0 mm | - | 246 W/m² | - |
| 1777806019 | 3.33° C | 94% | 1018 hPa | 0 mm | - | 16 W/m² | - |
| 1777804220 | 3.33° C | 94% | 1017.6 hPa | 0 mm | - | 5 W/m² | - |
| 1777788011 | 5.56° C | 95% | 1015.1 hPa | 0 mm | - | 0 W/m² | - |
| 1777785309 | 6.67° C | 96% | 1015 hPa | 0 mm | - | 0 W/m² | - |
| 1777775416 | 9.44° C | 95% | 1014.1 hPa | 0 mm | - | 0 W/m² | - |
| 1777772713 | 9.44° C | 94% | 1014 hPa | 0 mm | - | 0 W/m² | - |
| 1777771834 | 10° C | 94% | 1013.9 hPa | 0 mm | - | 0 W/m² | - |
| 1777767316 | 11.67° C | 90% | 1012.8 hPa | 0 mm | - | 0 W/m² | - |
| 1777765521 | 12.22° C | 86% | 1012.2 hPa | 0 mm | - | 9 W/m² | - |
| 1777764627 | 12.78° C | 86% | 1012 hPa | 0 mm | - | 40 W/m² | - |
| 1777761025 | 12.78° C | 86% | 1011.9 hPa | 0 mm | - | 33 W/m² | - |
| 1777759226 | 12.78° C | 83% | 1011.8 hPa | 0 mm | - | 42 W/m² | - |
| 1777754727 | 13.33° C | 82% | 1011.5 hPa | 0 mm | - | 116 W/m² | - |
| 1777734006 | 11.67° C | 95% | 1013.7 hPa | 0.51 mm | - | 130 W/m² | - |
| 1777728607 | 11.11° C | 94% | 1013.2 hPa | 0.76 mm | - | 42 W/m² | - |
* Rain latest hour (hover to see other rain measurements)
** Current wind speed in m/s (hover to see current wind gust speed)